EICK - Cork Airport
Distance from station: E 5mi, 14km
Updated: 06/21/2018 1:00am
Partly Cloudy
Partly Cloudy
 Wind from NNW
Wind: NNW 17 mph , 28 km/h
Temperature: 54°F , 12°C
Dew Point: 41°F , 5°C
Humidity: 63%
Barometer: 30.45 inHg , 1031 hPa
Clouds: Partly Cloudy
Visibility: 6 miles , 10 km
Cloud details: Partly Cloudy 2700 ft
2018/06/21 08:00 EICK 210800Z 33015KT 9999 SCT027 12/05 Q1031 NOSIG